createdAt,value
2017-08-21T00:01:52.672Z,59.70
2017-08-21T00:04:20.188Z,60.00
2017-08-21T00:06:47.665Z,60.30
2017-08-21T00:09:15.136Z,60.60
2017-08-21T00:11:42.631Z,60.70
2017-08-21T00:14:10.104Z,60.10
2017-08-21T00:16:37.592Z,60.10
2017-08-21T00:19:05.088Z,60.50
2017-08-21T00:21:32.657Z,60.70
2017-08-21T00:24:00.149Z,60.70
2017-08-21T00:26:27.623Z,60.90
2017-08-21T00:28:55.107Z,61.30
2017-08-21T00:31:22.625Z,60.90
2017-08-21T00:33:50.116Z,61.00
2017-08-21T00:36:17.595Z,61.20
2017-08-21T00:38:45.163Z,61.20
2017-08-21T00:41:12.637Z,61.20
2017-08-21T00:43:40.104Z,61.60
2017-08-21T00:46:07.596Z,61.80
2017-08-21T00:48:35.071Z,61.10
2017-08-21T00:51:02.555Z,61.40
2017-08-21T00:53:30.124Z,61.90
2017-08-21T00:55:57.625Z,61.90
2017-08-21T00:58:25.096Z,62.10
2017-08-21T01:00:52.584Z,62.10
2017-08-21T01:03:20.076Z,62.30
2017-08-21T01:05:47.612Z,62.10
2017-08-21T01:08:15.101Z,62.70
2017-08-21T01:10:42.570Z,62.80
2017-08-21T01:13:10.212Z,62.80
2017-08-21T01:15:37.687Z,62.90
2017-08-21T01:18:05.163Z,63.00
2017-08-21T01:20:32.651Z,63.50
2017-08-21T01:23:00.128Z,64.10
2017-08-21T01:25:27.612Z,64.40
2017-08-21T01:27:55.214Z,64.40
2017-08-21T01:30:22.708Z,64.60
2017-08-21T01:32:50.185Z,64.80
2017-08-21T01:35:17.675Z,64.70
2017-08-21T01:37:45.163Z,65.80
2017-08-21T01:40:12.639Z,65.00
2017-08-21T01:42:40.125Z,65.00
2017-08-21T01:45:07.596Z,65.00
2017-08-21T01:47:35.091Z,65.10
2017-08-21T01:50:02.555Z,65.20
2017-08-21T01:52:30.032Z,65.30
2017-08-21T01:54:57.515Z,65.30
2017-08-21T01:57:24.992Z,65.70
2017-08-21T01:59:52.473Z,66.40
2017-08-21T02:02:19.944Z,65.60
2017-08-21T02:04:47.450Z,66.10
2017-08-21T02:07:14.932Z,66.20
2017-08-21T02:09:42.399Z,66.30
2017-08-21T02:12:09.893Z,68.30
2017-08-21T02:14:37.364Z,68.60
2017-08-21T02:17:04.863Z,68.70
2017-08-21T02:19:32.338Z,69.10
2017-08-21T02:21:59.834Z,69.10
2017-08-21T02:24:27.308Z,69.10
2017-08-21T02:26:54.783Z,69.00
2017-08-21T02:29:22.272Z,69.20
2017-08-21T02:31:49.855Z,69.50
2017-08-21T02:34:17.340Z,69.50
2017-08-21T02:36:44.811Z,69.80
2017-08-21T02:39:12.307Z,69.60
2017-08-21T02:41:39.789Z,69.40
2017-08-21T02:44:07.260Z,69.60
2017-08-21T02:46:34.747Z,69.60
2017-08-21T02:49:02.220Z,69.60
2017-08-21T02:51:29.708Z,69.80
2017-08-21T02:53:57.280Z,69.70
2017-08-21T02:56:24.756Z,68.80
2017-08-21T02:58:52.248Z,69.80
2017-08-21T03:01:19.715Z,69.30
2017-08-21T03:03:47.316Z,69.20
2017-08-21T03:06:14.787Z,70.20
2017-08-21T03:08:42.267Z,70.70
2017-08-21T03:11:09.751Z,70.90
2017-08-21T03:13:37.228Z,71.30
2017-08-21T03:16:04.708Z,71.40
2017-08-21T03:18:32.179Z,71.30
2017-08-21T03:20:59.667Z,71.30
2017-08-21T03:23:27.140Z,71.50
2017-08-21T03:25:54.636Z,71.80
2017-08-21T03:28:22.135Z,72.00
2017-08-21T03:30:49.604Z,72.20
2017-08-21T03:33:17.092Z,72.40
2017-08-21T03:35:44.564Z,72.20
2017-08-21T03:38:12.032Z,72.20
2017-08-21T03:40:39.519Z,72.40
2017-08-21T03:43:06.987Z,72.60
2017-08-21T03:45:34.467Z,72.60
2017-08-21T03:48:01.940Z,72.60
2017-08-21T03:50:29.415Z,72.60
2017-08-21T03:52:56.901Z,72.70
2017-08-21T03:55:24.374Z,73.30
2017-08-21T03:57:52.812Z,73.00
2017-08-21T04:00:21.053Z,73.00
2017-08-21T04:02:48.548Z,72.80
2017-08-21T04:05:16.029Z,72.50
2017-08-21T04:07:43.514Z,72.50
2017-08-21T04:10:11.003Z,72.60
2017-08-21T04:12:38.475Z,72.50
2017-08-21T04:15:05.959Z,72.50
2017-08-21T04:17:33.437Z,72.60
2017-08-21T04:20:00.920Z,72.60
2017-08-21T04:22:28.407Z,72.60
2017-08-21T04:24:55.883Z,72.40
2017-08-21T04:27:23.371Z,72.50
2017-08-21T04:29:50.844Z,72.60
2017-08-21T04:32:18.321Z,72.60
2017-08-21T04:34:45.807Z,72.60
2017-08-21T04:37:13.284Z,72.80
2017-08-21T04:39:40.764Z,73.30
2017-08-21T04:42:08.245Z,72.70
2017-08-21T04:44:35.724Z,73.00
2017-08-21T04:47:03.203Z,73.20
2017-08-21T04:49:30.676Z,73.10
2017-08-21T04:51:58.164Z,73.30
2017-08-21T04:54:25.672Z,73.20
2017-08-21T04:56:53.180Z,73.30
2017-08-21T04:59:20.684Z,74.00
2017-08-21T05:01:48.151Z,74.10
2017-08-21T05:04:15.645Z,74.20
2017-08-21T05:06:43.120Z,74.40
2017-08-21T05:09:10.635Z,74.60
2017-08-21T05:11:38.131Z,74.60
2017-08-21T05:14:05.603Z,74.70
2017-08-21T05:16:33.084Z,74.80
2017-08-21T05:19:00.558Z,74.70
2017-08-21T05:21:28.031Z,74.60
2017-08-21T05:23:55.528Z,74.60
2017-08-21T05:26:22.996Z,74.60
2017-08-21T05:28:50.492Z,74.50
2017-08-21T05:31:17.964Z,74.50
2017-08-21T05:33:45.453Z,74.60
2017-08-21T05:36:12.952Z,74.40
2017-08-21T05:38:40.427Z,74.10
2017-08-21T05:41:07.913Z,74.10
2017-08-21T05:43:35.387Z,73.90
2017-08-21T05:46:02.863Z,74.00
2017-08-21T05:48:30.352Z,73.90
2017-08-21T05:50:57.851Z,73.90
2017-08-21T05:53:25.340Z,73.90
2017-08-21T05:55:52.812Z,73.80
2017-08-21T05:58:20.286Z,73.60
2017-08-21T06:00:47.784Z,73.50
2017-08-21T06:03:15.255Z,73.60
2017-08-21T06:05:42.746Z,73.50
2017-08-21T06:08:10.220Z,73.40
2017-08-21T06:10:37.696Z,73.10
2017-08-21T06:13:05.188Z,73.10
2017-08-21T06:15:32.670Z,72.70
2017-08-21T06:18:00.159Z,72.70
2017-08-21T06:20:27.751Z,72.50
2017-08-21T06:22:55.222Z,72.30
2017-08-21T06:25:22.711Z,72.10
2017-08-21T06:27:50.183Z,71.70
2017-08-21T06:30:17.683Z,71.70
2017-08-21T06:32:45.157Z,71.60
2017-08-21T06:35:12.667Z,71.00
2017-08-21T06:37:40.159Z,70.70
2017-08-21T06:40:07.639Z,70.10
2017-08-21T06:42:35.140Z,70.10
2017-08-21T06:45:02.621Z,69.70
2017-08-21T06:47:30.108Z,69.80
2017-08-21T06:49:57.615Z,69.70
2017-08-21T06:52:25.100Z,69.90
2017-08-21T06:54:52.600Z,70.70
2017-08-21T06:57:20.087Z,70.10
2017-08-21T06:59:47.559Z,70.00
2017-08-21T07:02:15.042Z,70.00
2017-08-21T07:04:42.541Z,69.50
2017-08-21T07:07:10.128Z,69.50
2017-08-21T07:09:37.599Z,69.40
2017-08-21T07:12:05.068Z,68.70
2017-08-21T07:14:32.562Z,68.30
2017-08-21T07:17:00.044Z,67.40
2017-08-21T07:19:27.533Z,68.10
2017-08-21T07:21:55.001Z,67.40
2017-08-21T07:24:22.480Z,67.50
2017-08-21T07:26:49.964Z,67.60
2017-08-21T07:29:17.444Z,67.60
2017-08-21T07:31:44.953Z,67.30
2017-08-21T07:34:12.471Z,67.30
2017-08-21T07:36:39.940Z,66.70
2017-08-21T07:39:07.426Z,66.30
2017-08-21T07:41:34.901Z,66.00
2017-08-21T07:44:02.399Z,65.60
2017-08-21T07:46:29.893Z,65.20
2017-08-21T07:48:57.419Z,65.40
2017-08-21T07:51:24.911Z,64.50
2017-08-21T07:53:52.379Z,64.20
2017-08-21T07:56:19.867Z,63.80
2017-08-21T07:58:47.342Z,63.70
2017-08-21T08:01:14.868Z,63.10
2017-08-21T08:03:42.371Z,62.60
2017-08-21T08:06:09.836Z,62.10
2017-08-21T08:08:37.329Z,60.30
2017-08-21T08:11:04.797Z,59.40
2017-08-21T08:13:32.296Z,60.30
2017-08-21T08:15:59.783Z,59.90
2017-08-21T08:18:27.313Z,59.80
2017-08-21T08:20:54.808Z,59.10
2017-08-21T08:23:22.288Z,58.30
2017-08-21T08:25:49.904Z,58.70
2017-08-21T08:28:17.376Z,58.20
2017-08-21T08:30:44.860Z,57.10
2017-08-21T08:33:12.347Z,57.00
2017-08-21T08:35:39.820Z,56.20
2017-08-21T08:38:07.327Z,54.60
2017-08-21T08:40:34.795Z,53.10
2017-08-21T08:43:02.267Z,53.10
2017-08-21T08:45:29.778Z,53.90
2017-08-21T08:47:57.248Z,54.30
2017-08-21T08:50:24.746Z,53.80
2017-08-21T08:52:52.216Z,54.00
2017-08-21T08:55:19.737Z,54.50
2017-08-21T08:57:47.224Z,54.40
2017-08-21T09:00:14.712Z,53.80
2017-08-21T09:02:42.242Z,53.40
2017-08-21T09:05:09.726Z,52.70
2017-08-21T09:07:37.212Z,53.10
2017-08-21T09:10:04.741Z,53.10
2017-08-21T09:12:32.213Z,52.80
2017-08-21T09:14:59.707Z,52.40
2017-08-21T09:17:27.189Z,52.00
2017-08-21T09:19:54.696Z,51.90
2017-08-21T09:22:22.206Z,51.80
2017-08-21T09:24:49.691Z,51.80
2017-08-21T09:27:17.188Z,51.60
2017-08-21T09:29:44.670Z,51.70
2017-08-21T09:32:12.191Z,51.00
2017-08-21T09:34:39.665Z,51.10
2017-08-21T09:37:07.172Z,50.90
2017-08-21T09:39:34.695Z,50.50
2017-08-21T09:42:02.185Z,51.00
2017-08-21T09:44:29.691Z,50.60
2017-08-21T09:46:57.176Z,50.00
2017-08-21T09:49:24.677Z,49.90
2017-08-21T09:51:52.156Z,49.40
2017-08-21T09:54:19.659Z,49.20
2017-08-21T09:56:47.132Z,49.20
2017-08-21T09:59:14.628Z,48.40
2017-08-21T10:01:42.122Z,48.70
2017-08-21T10:04:09.599Z,49.40
2017-08-21T10:06:37.091Z,48.80
2017-08-21T10:09:04.576Z,49.10
2017-08-21T10:11:32.069Z,48.40
2017-08-21T10:13:59.548Z,47.90
2017-08-21T10:16:27.024Z,47.90
2017-08-21T10:18:54.527Z,47.20
2017-08-21T10:21:21.997Z,45.80
2017-08-21T10:23:49.500Z,45.50
2017-08-21T10:26:16.979Z,46.30
2017-08-21T10:28:44.512Z,46.70
2017-08-21T10:31:12.001Z,46.30
2017-08-21T10:33:39.470Z,45.60
2017-08-21T10:36:06.963Z,45.60
2017-08-21T10:38:34.445Z,45.10
2017-08-21T10:41:01.954Z,45.40
2017-08-21T10:43:29.423Z,45.80
2017-08-21T10:45:56.963Z,45.10
2017-08-21T10:48:24.456Z,43.00
2017-08-21T10:50:51.982Z,43.20
2017-08-21T10:53:19.471Z,44.40
2017-08-21T10:55:46.950Z,44.60
2017-08-21T10:58:14.440Z,44.90
2017-08-21T11:00:41.903Z,43.70
2017-08-21T11:03:09.473Z,45.60
2017-08-21T11:05:36.960Z,46.20
2017-08-21T11:08:04.427Z,45.30
2017-08-21T11:10:31.960Z,45.50
2017-08-21T11:12:59.460Z,45.40
2017-08-21T11:15:26.951Z,45.10
2017-08-21T11:17:54.445Z,44.50
2017-08-21T11:20:21.985Z,44.80
2017-08-21T11:22:49.458Z,44.20
2017-08-21T11:25:16.936Z,43.60
2017-08-21T11:27:44.421Z,44.10
2017-08-21T11:30:11.914Z,44.20
2017-08-21T11:32:39.424Z,43.60
2017-08-21T11:35:06.907Z,42.80
2017-08-21T11:37:34.410Z,42.30
2017-08-21T11:40:01.889Z,43.30
2017-08-21T11:42:29.357Z,42.50
2017-08-21T11:44:56.847Z,43.40
2017-08-21T11:47:24.327Z,43.70
2017-08-21T11:49:51.820Z,43.40
2017-08-21T11:52:19.300Z,43.70
2017-08-21T11:54:46.903Z,44.10
2017-08-21T11:57:14.376Z,43.80
2017-08-21T11:59:41.856Z,44.50
2017-08-21T12:02:09.343Z,42.90
2017-08-21T12:04:36.811Z,43.20
2017-08-21T12:07:04.308Z,43.20
2017-08-21T12:09:31.784Z,43.50
2017-08-21T12:11:59.299Z,43.40
2017-08-21T12:14:26.804Z,43.40
2017-08-21T12:16:54.399Z,43.10
2017-08-21T12:19:21.885Z,41.90
2017-08-21T12:21:49.424Z,42.40
2017-08-21T12:24:16.911Z,41.50
2017-08-21T12:26:44.415Z,40.20
2017-08-21T12:29:11.924Z,40.30
2017-08-21T12:31:39.401Z,39.60
2017-08-21T12:34:06.879Z,39.30
2017-08-21T12:36:34.471Z,39.00
2017-08-21T12:39:01.948Z,39.80
2017-08-21T12:41:30.110Z,39.90
2017-08-21T12:43:57.580Z,40.10
2017-08-21T12:46:25.090Z,40.80
2017-08-21T12:48:52.570Z,39.70
2017-08-21T12:51:20.113Z,39.00
2017-08-21T12:53:47.689Z,37.50
2017-08-21T12:56:15.159Z,37.30
2017-08-21T12:58:42.651Z,37.30
2017-08-21T13:01:10.133Z,37.10
2017-08-21T13:03:37.651Z,36.70
2017-08-21T13:06:05.128Z,35.40
2017-08-21T13:08:32.601Z,34.50
2017-08-21T13:11:00.090Z,33.70
2017-08-21T13:13:27.567Z,33.50
2017-08-21T13:15:55.084Z,33.80
2017-08-21T13:18:22.564Z,32.40
2017-08-21T13:20:50.089Z,32.70
2017-08-21T13:23:17.568Z,31.60
2017-08-21T13:25:45.044Z,31.50
2017-08-21T13:28:12.527Z,31.30
2017-08-21T13:30:40.004Z,32.60
2017-08-21T13:33:07.500Z,32.10
2017-08-21T13:35:34.972Z,32.00
2017-08-21T13:38:02.475Z,31.20
2017-08-21T13:40:29.952Z,31.30
2017-08-21T13:42:57.431Z,31.20
2017-08-21T13:45:24.928Z,31.00
2017-08-21T13:47:52.515Z,31.70
2017-08-21T13:50:20.005Z,30.90
2017-08-21T13:52:47.493Z,30.20
2017-08-21T13:55:15.093Z,30.80
2017-08-21T13:57:42.608Z,30.40
2017-08-21T14:00:10.081Z,30.20
2017-08-21T14:02:37.597Z,29.90
2017-08-21T14:05:05.087Z,29.90
2017-08-21T14:07:32.587Z,30.50
2017-08-21T14:10:00.079Z,30.20
2017-08-21T14:12:27.583Z,30.10
2017-08-21T14:14:55.056Z,29.30
2017-08-21T14:17:22.531Z,29.20
2017-08-21T14:19:50.022Z,29.40
2017-08-21T14:22:17.494Z,29.20
2017-08-21T14:24:45.040Z,29.90
2017-08-21T14:27:12.515Z,31.50
2017-08-21T14:29:40.003Z,31.80
2017-08-21T14:32:07.528Z,33.00
2017-08-21T14:34:35.008Z,33.80
2017-08-21T14:37:02.509Z,34.20
2017-08-21T14:39:29.991Z,33.40
2017-08-21T14:41:57.480Z,33.60
2017-08-21T14:44:25.011Z,34.10
2017-08-21T14:46:52.511Z,34.70
2017-08-21T14:49:19.987Z,34.20
2017-08-21T14:51:47.473Z,34.30
2017-08-21T14:54:15.003Z,35.60
2017-08-21T14:56:42.560Z,35.30
2017-08-21T14:59:10.075Z,35.30
2017-08-21T15:01:37.547Z,34.70
2017-08-21T15:04:05.112Z,34.60
2017-08-21T15:06:32.601Z,35.10
2017-08-21T15:09:00.071Z,35.30
2017-08-21T15:11:27.576Z,35.10
2017-08-21T15:13:55.060Z,35.10
2017-08-21T15:16:22.525Z,35.80
2017-08-21T15:18:50.007Z,35.10
2017-08-21T15:21:17.516Z,35.10
2017-08-21T15:23:45.022Z,35.00
2017-08-21T15:26:12.538Z,35.00
2017-08-21T15:28:40.059Z,35.20
2017-08-21T15:31:07.535Z,35.60
2017-08-21T15:33:35.007Z,35.80
2017-08-21T15:36:02.508Z,35.80
2017-08-21T15:38:30.007Z,35.50
2017-08-21T15:40:57.516Z,36.20
2017-08-21T15:43:24.991Z,36.00
2017-08-21T15:45:52.503Z,36.70
2017-08-21T15:48:19.989Z,36.30
2017-08-21T15:50:47.507Z,35.70
2017-08-21T15:53:15.009Z,36.90
2017-08-21T15:55:42.485Z,37.00
2017-08-21T15:58:10.027Z,36.20
2017-08-21T16:00:37.532Z,36.40
2017-08-21T16:03:05.036Z,36.90
2017-08-21T16:05:32.507Z,36.70
2017-08-21T16:08:00.044Z,37.40
2017-08-21T16:10:27.533Z,37.10
2017-08-21T16:12:55.009Z,37.10
2017-08-21T16:15:22.495Z,36.90
2017-08-21T16:17:50.004Z,37.20
2017-08-21T16:20:17.497Z,37.90
2017-08-21T16:22:45.081Z,38.10
2017-08-21T16:25:12.555Z,38.90
2017-08-21T16:27:40.133Z,38.70
2017-08-21T16:30:07.604Z,38.50
2017-08-21T16:32:35.096Z,38.30
2017-08-21T16:35:02.572Z,38.50
2017-08-21T16:37:30.062Z,39.00
2017-08-21T16:39:57.541Z,38.80
2017-08-21T16:42:25.019Z,38.60
2017-08-21T16:44:52.499Z,38.90
2017-08-21T16:47:19.988Z,38.40
2017-08-21T16:49:47.491Z,39.00
2017-08-21T16:52:15.737Z,39.60
2017-08-21T16:54:43.231Z,39.50
2017-08-21T16:57:10.702Z,39.30
2017-08-21T16:59:38.202Z,39.10
2017-08-21T17:02:05.738Z,39.30
2017-08-21T17:04:33.252Z,39.50
2017-08-21T17:07:00.893Z,39.80
2017-08-21T17:09:28.367Z,40.30
2017-08-21T17:11:55.875Z,40.10
2017-08-21T17:14:23.348Z,40.20
2017-08-21T17:16:50.828Z,40.40
2017-08-21T17:19:18.316Z,40.50
2017-08-21T17:21:45.785Z,40.00
2017-08-21T17:24:13.287Z,40.00
2017-08-21T17:26:40.767Z,40.40
2017-08-21T17:29:08.275Z,40.20
2017-08-21T17:31:35.756Z,39.80
2017-08-21T17:34:03.236Z,40.10
2017-08-21T17:36:30.744Z,40.00
2017-08-21T17:38:58.221Z,40.00
2017-08-21T17:41:25.716Z,41.20
2017-08-21T17:43:53.191Z,41.50
2017-08-21T17:46:20.696Z,41.30
2017-08-21T17:48:48.177Z,41.50
2017-08-21T17:51:15.668Z,41.80
2017-08-21T17:53:43.194Z,42.20
2017-08-21T17:56:10.665Z,42.20
2017-08-21T17:58:38.186Z,41.90
2017-08-21T18:01:05.695Z,42.40
2017-08-21T18:03:33.223Z,42.60
2017-08-21T18:06:00.719Z,42.20
2017-08-21T18:08:28.202Z,42.40
2017-08-21T18:10:55.711Z,42.20
2017-08-21T18:13:23.205Z,42.50
2017-08-21T18:15:50.700Z,43.10
2017-08-21T18:18:18.290Z,43.10
2017-08-21T18:20:45.818Z,43.30
2017-08-21T18:23:13.312Z,43.50
2017-08-21T18:25:40.787Z,43.40
2017-08-21T18:28:08.284Z,44.00
2017-08-21T18:30:35.844Z,44.20
2017-08-21T18:33:03.352Z,44.80
2017-08-21T18:35:30.838Z,44.50
2017-08-21T18:37:58.336Z,44.00
2017-08-21T18:40:25.875Z,43.70
2017-08-21T18:42:53.347Z,44.10
2017-08-21T18:45:20.834Z,43.70
2017-08-21T18:47:48.317Z,43.70
2017-08-21T18:50:15.800Z,44.10
2017-08-21T18:52:43.308Z,44.50
2017-08-21T18:55:10.816Z,44.80
2017-08-21T18:57:38.279Z,45.50
2017-08-21T19:00:05.748Z,45.00
2017-08-21T19:02:33.248Z,44.90
2017-08-21T19:05:00.746Z,44.80
2017-08-21T19:07:28.240Z,45.10
2017-08-21T19:09:55.708Z,44.70
2017-08-21T19:15:00.688Z,45.80
2017-08-21T19:17:28.194Z,45.80
2017-08-21T19:19:55.671Z,47.20
2017-08-21T19:22:23.163Z,46.50
2017-08-21T19:24:50.667Z,46.50
2017-08-21T19:27:18.148Z,45.70
2017-08-21T19:29:45.635Z,45.80
2017-08-21T19:32:13.118Z,46.10
2017-08-21T19:34:40.619Z,45.80
2017-08-21T19:37:08.098Z,45.90
2017-08-21T19:39:35.568Z,45.80
2017-08-21T19:42:03.084Z,46.00
2017-08-21T19:44:30.586Z,46.20
2017-08-21T19:46:58.079Z,46.50
2017-08-21T19:49:25.555Z,46.40
2017-08-21T19:51:53.067Z,46.20
2017-08-21T19:54:20.557Z,47.20
2017-08-21T19:56:48.026Z,47.70
2017-08-21T19:59:15.537Z,48.00
2017-08-21T20:01:43.015Z,49.00
2017-08-21T20:04:10.543Z,48.20
2017-08-21T20:06:38.019Z,48.40
2017-08-21T20:09:05.487Z,48.50
2017-08-21T20:11:32.971Z,48.20
2017-08-21T20:14:00.444Z,47.90
2017-08-21T20:16:28.034Z,48.00
2017-08-21T20:18:55.508Z,48.40
2017-08-21T20:21:23.015Z,48.40
2017-08-21T20:23:50.610Z,49.60
2017-08-21T20:26:18.076Z,49.10
2017-08-21T20:28:45.592Z,49.50
2017-08-21T20:31:13.095Z,50.00
2017-08-21T20:33:40.591Z,50.10
2017-08-21T20:36:08.072Z,50.40
2017-08-21T20:38:35.575Z,51.00
2017-08-21T20:41:03.078Z,52.00
2017-08-21T20:43:30.579Z,51.90
2017-08-21T20:45:58.118Z,51.90
2017-08-21T20:48:25.596Z,52.60
2017-08-21T20:50:53.083Z,52.00
2017-08-21T20:53:20.564Z,52.00
2017-08-21T20:55:48.135Z,52.30
2017-08-21T20:58:15.636Z,52.40
2017-08-21T21:00:43.116Z,52.80
2017-08-21T21:03:10.630Z,52.90
2017-08-21T21:05:38.133Z,53.30
2017-08-21T21:08:05.619Z,54.10
2017-08-21T21:10:33.124Z,54.20
2017-08-21T21:13:00.625Z,54.00
2017-08-21T21:15:28.096Z,54.10
2017-08-21T21:17:55.620Z,54.30
2017-08-21T21:20:23.103Z,54.20
2017-08-21T21:22:50.580Z,54.10
2017-08-21T21:25:18.076Z,53.90
2017-08-21T21:27:45.565Z,54.10
2017-08-21T21:30:13.040Z,54.10
2017-08-21T21:32:40.756Z,54.40
2017-08-21T21:35:08.251Z,54.60
2017-08-21T21:37:35.735Z,54.80
2017-08-21T21:40:03.244Z,55.00
2017-08-21T21:42:30.735Z,55.00
2017-08-21T21:44:58.207Z,55.10
2017-08-21T21:47:25.687Z,55.60
2017-08-21T21:49:53.243Z,55.90
2017-08-21T21:52:20.712Z,56.10
2017-08-21T21:54:48.206Z,56.40
2017-08-21T21:57:15.746Z,56.50
2017-08-21T21:59:43.252Z,56.80
2017-08-21T22:02:10.723Z,57.10
2017-08-21T22:04:38.196Z,57.40
2017-08-21T22:07:05.685Z,57.40
2017-08-21T22:09:33.154Z,57.80
2017-08-21T22:12:00.647Z,57.80
2017-08-21T22:14:28.126Z,57.80
2017-08-21T22:16:55.626Z,58.10
2017-08-21T22:19:23.113Z,58.80
2017-08-21T22:21:50.589Z,58.70
2017-08-21T22:24:18.189Z,59.10
2017-08-21T22:26:45.682Z,58.90
2017-08-21T22:29:13.168Z,58.60
2017-08-21T22:31:40.637Z,59.20
2017-08-21T22:34:08.131Z,59.70
2017-08-21T22:36:35.605Z,59.20
2017-08-21T22:39:35.483Z,58.70
2017-08-21T22:42:02.963Z,59.00
2017-08-21T22:44:30.439Z,59.20
2017-08-21T22:46:57.928Z,59.80
2017-08-21T22:49:25.399Z,60.20
2017-08-21T22:51:52.880Z,60.40
2017-08-21T22:54:20.360Z,60.60
2017-08-21T22:56:47.855Z,60.50
2017-08-21T22:59:15.332Z,60.60
2017-08-21T23:01:42.799Z,61.20
2017-08-21T23:04:10.378Z,61.20
2017-08-21T23:06:37.868Z,61.40
2017-08-21T23:09:05.352Z,61.70
2017-08-21T23:11:32.824Z,61.90
2017-08-21T23:14:00.349Z,62.40
2017-08-21T23:16:27.816Z,62.60
2017-08-21T23:18:55.283Z,62.60
2017-08-21T23:21:22.788Z,63.30
2017-08-21T23:23:50.264Z,63.50
2017-08-21T23:26:17.772Z,63.60
2017-08-21T23:28:45.271Z,63.70
2017-08-21T23:31:13.781Z,63.70
2017-08-21T23:33:41.248Z,64.00
2017-08-21T23:36:08.722Z,64.30
2017-08-21T23:38:36.209Z,64.30
2017-08-21T23:41:03.686Z,63.80
2017-08-21T23:43:31.173Z,63.90
2017-08-21T23:45:58.652Z,64.50
2017-08-21T23:48:26.152Z,63.60
2017-08-21T23:50:53.619Z,62.90
2017-08-21T23:53:21.235Z,63.50
2017-08-21T23:55:48.803Z,63.90
2017-08-21T23:58:16.267Z,64.10
